createdAt,value
2019-04-06T00:00:07.416Z,535.8640
2019-04-06T00:00:15.388Z,537.7670
2019-04-06T00:00:23.441Z,535.8540
2019-04-06T00:00:31.441Z,534.5680
2019-04-06T00:00:39.404Z,535.6680
2019-04-06T00:00:47.387Z,537.6970
2019-04-06T00:00:55.369Z,540.3490
2019-04-06T00:01:03.408Z,540.2870
2019-04-06T00:01:11.403Z,540.8230
2019-04-06T00:01:19.458Z,536.9130
2019-04-06T00:01:27.381Z,532.9980
2019-04-06T00:01:35.377Z,530.7590
2019-04-06T00:01:43.383Z,531.2310
2019-04-06T00:01:51.418Z,531.3730
2019-04-06T00:02:00.416Z,531.5860
2019-04-06T00:02:08.384Z,530.6830
2019-04-06T00:02:16.378Z,530.8690
2019-04-06T00:02:24.449Z,532.1300
2019-04-06T00:02:32.430Z,533.1900
2019-04-06T00:02:40.389Z,534.3270
2019-04-06T00:02:48.419Z,535.1810
2019-04-06T00:02:56.379Z,534.9600
2019-04-06T00:03:04.378Z,535.9410
2019-04-06T00:03:12.398Z,539.1660
2019-04-06T00:03:21.028Z,541.3380
2019-04-06T00:03:29.427Z,540.8910
2019-04-06T00:03:37.445Z,540.8740
2019-04-06T00:03:45.399Z,540.2300
2019-04-06T00:03:52.396Z,535.5550
2019-04-06T00:04:00.400Z,533.6460
2019-04-06T00:04:08.409Z,534.2430
2019-04-06T00:04:16.387Z,529.7490
2019-04-06T00:04:25.040Z,528.4580
2019-04-06T00:04:33.400Z,530.1530
2019-04-06T00:04:41.422Z,532.1430
2019-04-06T00:04:49.419Z,531.5880
2019-04-06T00:04:58.423Z,532.7000
2019-04-06T00:05:06.435Z,532.7940
2019-04-06T00:05:14.373Z,530.3910
2019-04-06T00:05:22.412Z,528.4640
2019-04-06T00:05:30.424Z,525.7080
2019-04-06T00:05:37.379Z,524.9230
2019-04-06T00:05:45.430Z,519.4110
2019-04-06T00:05:53.388Z,519.1200
2019-04-06T00:06:01.387Z,520.2610
2019-04-06T00:06:09.391Z,524.9810
2019-04-06T00:06:17.425Z,528.0390
2019-04-06T00:06:25.401Z,531.7280
2019-04-06T00:06:33.419Z,532.5070
2019-04-06T00:06:41.383Z,537.0150
2019-04-06T00:06:49.373Z,538.0140
2019-04-06T00:06:57.437Z,542.0810
2019-04-06T00:07:05.382Z,542.1850
2019-04-06T00:07:13.426Z,540.2120
2019-04-06T00:07:22.404Z,539.5160
2019-04-06T00:07:30.379Z,537.3350
2019-04-06T00:07:38.383Z,533.9250
2019-04-06T00:07:46.430Z,532.5060
2019-04-06T00:07:54.438Z,531.3900
2019-04-06T00:08:01.373Z,531.6550
2019-04-06T00:08:09.433Z,531.7950
2019-04-06T00:08:17.413Z,533.0120
2019-04-06T00:08:25.417Z,534.5580
2019-04-06T00:08:33.443Z,535.1430
2019-04-06T00:08:41.396Z,536.8000
2019-04-06T00:08:49.479Z,538.7720
2019-04-06T00:08:57.381Z,540.2000
2019-04-06T00:09:05.389Z,539.4500
2019-04-06T00:09:13.384Z,538.6280
2019-04-06T00:09:21.423Z,538.3380
2019-04-06T00:09:29.422Z,537.8490
2019-04-06T00:09:37.429Z,537.4150
2019-04-06T00:09:45.391Z,535.6590
2019-04-06T00:09:52.444Z,537.2110
2019-04-06T00:10:00.422Z,539.0010
2019-04-06T00:10:08.406Z,537.9000
2019-04-06T00:10:16.391Z,537.6910
2019-04-06T00:10:25.020Z,537.8260
2019-04-06T00:10:33.414Z,539.2790
2019-04-06T00:10:41.419Z,538.4350
2019-04-06T00:10:49.380Z,538.2170
2019-04-06T00:10:57.393Z,534.2010
2019-04-06T00:11:05.381Z,531.2920
2019-04-06T00:11:13.460Z,528.7300
2019-04-06T00:11:21.423Z,526.0460
2019-04-06T00:11:29.382Z,525.9080
2019-04-06T00:11:37.404Z,525.2400
2019-04-06T00:11:45.393Z,522.6480
2019-04-06T00:11:53.419Z,521.0430
2019-04-06T00:12:01.395Z,521.3620
2019-04-06T00:12:09.402Z,522.1150
2019-04-06T00:12:17.454Z,524.8140
2019-04-06T00:12:25.393Z,527.4570
2019-04-06T00:12:33.399Z,527.5510
2019-04-06T00:12:41.451Z,529.5330
2019-04-06T00:12:49.399Z,531.0730
2019-04-06T00:12:57.397Z,534.2830
2019-04-06T00:13:04.409Z,537.4310
2019-04-06T00:13:13.061Z,538.6960
2019-04-06T00:13:21.394Z,538.4370
2019-04-06T00:13:29.455Z,538.6910
2019-04-06T00:13:37.970Z,540.4230
2019-04-06T00:13:46.421Z,539.8710
2019-04-06T00:13:54.403Z,538.3070
2019-04-06T00:14:02.454Z,537.9560
2019-04-06T00:14:11.042Z,536.0970
2019-04-06T00:14:19.393Z,532.2290
2019-04-06T00:14:27.443Z,530.4700
2019-04-06T00:14:35.407Z,530.0600
2019-04-06T00:14:43.439Z,530.7520
2019-04-06T00:14:50.400Z,530.8950
2019-04-06T00:14:59.021Z,529.3650
2019-04-06T00:15:07.400Z,528.8430
2019-04-06T00:15:15.397Z,529.3960
2019-04-06T00:15:23.409Z,528.9470
2019-04-06T00:15:31.413Z,530.8700
2019-04-06T00:15:39.417Z,531.4340
2019-04-06T00:15:47.401Z,530.9400
2019-04-06T00:15:55.386Z,528.7790
2019-04-06T00:16:03.413Z,527.0490
2019-04-06T00:16:11.411Z,526.1400
2019-04-06T00:16:19.411Z,525.9130
2019-04-06T00:16:27.393Z,525.4260
2019-04-06T00:16:35.401Z,526.2400
2019-04-06T00:16:43.429Z,525.2930
2019-04-06T00:16:51.420Z,524.0420
2019-04-06T00:16:58.443Z,523.5720
2019-04-06T00:17:06.385Z,523.2820
2019-04-06T00:17:14.456Z,524.7270
2019-04-06T00:17:22.386Z,528.2210
2019-04-06T00:17:29.389Z,532.0110
2019-04-06T00:17:37.407Z,533.9920
2019-04-06T00:17:45.429Z,536.6110
2019-04-06T00:17:53.439Z,538.9990
2019-04-06T00:18:01.411Z,540.8100
2019-04-06T00:18:09.389Z,538.6490
2019-04-06T00:18:17.394Z,538.5150
2019-04-06T00:18:25.405Z,540.2890
2019-04-06T00:18:33.438Z,541.0480
2019-04-06T00:18:41.427Z,544.6460
2019-04-06T00:18:49.380Z,546.5810
2019-04-06T00:18:57.471Z,546.8820
2019-04-06T00:19:05.383Z,547.0410
2019-04-06T00:19:13.375Z,545.9530
2019-04-06T00:19:21.427Z,546.3070
2019-04-06T00:19:29.419Z,546.4000
2019-04-06T00:19:37.390Z,546.5400
2019-04-06T00:19:44.381Z,546.6710
2019-04-06T00:19:52.416Z,547.5250
2019-04-06T00:20:00.393Z,547.4550
2019-04-06T00:20:08.411Z,547.7000
2019-04-06T00:20:16.383Z,547.2900
2019-04-06T00:20:23.449Z,549.7290
2019-04-06T00:20:31.431Z,550.2880
2019-04-06T00:20:39.444Z,550.1300
2019-04-06T00:20:47.434Z,549.7020
2019-04-06T00:20:55.399Z,549.3350
2019-04-06T00:21:03.425Z,548.1880
2019-04-06T00:21:16.019Z,547.5850
2019-04-06T00:21:24.383Z,546.2200
2019-04-06T00:21:32.395Z,545.5680
2019-04-06T00:21:40.410Z,545.2690
2019-04-06T00:21:48.424Z,545.7770
2019-04-06T00:21:56.390Z,545.8490
2019-04-06T00:22:04.381Z,544.5920
2019-04-06T00:22:12.456Z,543.9230
2019-04-06T00:22:19.427Z,543.8120
2019-04-06T00:22:29.421Z,544.2520
2019-04-06T00:22:37.386Z,543.6700
2019-04-06T00:22:45.393Z,543.5740
2019-04-06T00:22:53.446Z,543.5340
2019-04-06T00:23:01.481Z,544.0260
2019-04-06T00:23:10.037Z,545.2910
2019-04-06T00:23:18.393Z,545.1380
2019-04-06T00:23:25.608Z,547.0060
2019-04-06T00:23:33.407Z,549.2920
2019-04-06T00:23:41.424Z,549.9790
2019-04-06T00:23:49.380Z,548.8040
2019-04-06T00:23:57.924Z,546.4900
2019-04-06T00:24:05.397Z,545.9510
2019-04-06T00:24:13.389Z,545.9240
2019-04-06T00:24:21.427Z,545.0200
2019-04-06T00:24:29.409Z,545.3820
2019-04-06T00:24:37.460Z,545.3120
2019-04-06T00:24:45.389Z,544.7830
2019-04-06T00:24:53.423Z,544.1640
2019-04-06T00:25:01.448Z,542.9270
2019-04-06T00:25:09.424Z,541.5710
2019-04-06T00:25:17.415Z,542.8190
2019-04-06T00:25:26.108Z,543.4010
2019-04-06T00:25:44.221Z,542.7610
2019-04-06T00:25:50.378Z,542.9890
2019-04-06T00:25:58.381Z,544.1290
2019-04-06T00:26:06.467Z,543.8990
2019-04-06T00:26:14.404Z,543.2490
2019-04-06T00:26:22.420Z,542.3670
2019-04-06T00:26:30.401Z,541.8270
2019-04-06T00:26:38.428Z,541.2570
2019-04-06T00:26:46.431Z,539.9870
2019-04-06T00:26:54.379Z,540.2250
2019-04-06T00:27:01.419Z,541.4970
2019-04-06T00:27:09.404Z,543.4610
2019-04-06T00:27:17.399Z,542.9070
2019-04-06T00:27:25.494Z,542.5160
2019-04-06T00:27:33.437Z,541.9600
2019-04-06T00:27:41.407Z,541.5120
2019-04-06T00:27:49.473Z,541.8540
2019-04-06T00:27:57.402Z,542.2730
2019-04-06T00:28:05.380Z,542.2250
2019-04-06T00:28:13.463Z,543.7470
2019-04-06T00:28:21.393Z,543.6280
2019-04-06T00:28:29.439Z,542.9050
2019-04-06T00:28:37.472Z,544.2420
2019-04-06T00:28:45.408Z,543.0480
2019-04-06T00:28:53.394Z,543.0460
2019-04-06T00:29:01.461Z,543.8050
2019-04-06T00:29:09.426Z,543.7750
2019-04-06T00:29:17.514Z,543.6350
2019-04-06T00:29:24.435Z,544.8570
2019-04-06T00:29:33.021Z,544.4450
2019-04-06T00:29:41.409Z,542.6430
2019-04-06T00:29:49.401Z,542.5430
2019-04-06T00:29:57.401Z,541.5320
2019-04-06T00:30:05.421Z,542.6450
2019-04-06T00:30:13.445Z,542.3550
2019-04-06T00:30:21.401Z,542.9100
2019-04-06T00:30:29.427Z,541.9640
2019-04-06T00:30:37.404Z,543.1470
2019-04-06T00:30:45.418Z,542.1460
2019-04-06T00:30:53.389Z,541.2570
2019-04-06T00:31:01.427Z,541.7910
2019-04-06T00:31:09.373Z,544.5580
2019-04-06T00:31:17.399Z,544.7980
2019-04-06T00:31:25.387Z,543.5110
2019-04-06T00:31:33.407Z,541.8810
2019-04-06T00:31:40.436Z,542.0280
2019-04-06T00:31:48.379Z,542.5380
2019-04-06T00:31:56.483Z,542.1400
2019-04-06T00:32:04.425Z,541.4200
2019-04-06T00:32:11.443Z,541.3410
2019-04-06T00:32:19.403Z,542.0840
2019-04-06T00:32:27.422Z,543.7840
2019-04-06T00:32:35.415Z,543.0790
2019-04-06T00:32:43.404Z,543.8020
2019-04-06T00:32:51.539Z,543.1570
2019-04-06T00:32:59.381Z,542.2790
2019-04-06T00:33:07.419Z,540.9930
2019-04-06T00:33:15.389Z,540.3720
2019-04-06T00:33:23.409Z,539.3170
2019-04-06T00:33:31.399Z,540.0930
2019-04-06T00:33:39.409Z,542.4100
2019-04-06T00:33:47.400Z,543.9120
2019-04-06T00:33:55.462Z,543.5730
2019-04-06T00:34:03.410Z,542.9640
2019-04-06T00:34:11.425Z,542.8300
2019-04-06T00:34:19.403Z,543.5280
2019-04-06T00:34:27.419Z,542.5860
2019-04-06T00:34:35.413Z,542.0860
2019-04-06T00:34:43.397Z,541.1140
2019-04-06T00:34:51.388Z,540.1410
2019-04-06T00:34:59.432Z,539.3930
2019-04-06T00:35:07.383Z,538.5380
2019-04-06T00:35:15.381Z,538.0510
2019-04-06T00:35:23.423Z,538.9000
2019-04-06T00:35:31.390Z,538.8830
2019-04-06T00:35:39.397Z,539.1350
2019-04-06T00:35:47.475Z,539.6200
2019-04-06T00:35:55.384Z,540.7860
2019-04-06T00:36:03.380Z,541.1890
2019-04-06T00:36:11.479Z,539.9720
2019-04-06T00:36:19.410Z,541.0350
2019-04-06T00:36:27.420Z,542.0520
2019-04-06T00:36:35.388Z,543.7630
2019-04-06T00:36:43.408Z,545.0790
2019-04-06T00:36:51.439Z,546.6030
2019-04-06T00:36:59.391Z,546.6520
2019-04-06T00:37:07.474Z,545.6190
2019-04-06T00:37:15.369Z,545.8320
2019-04-06T00:37:23.439Z,544.5170
2019-04-06T00:37:32.420Z,545.4220
2019-04-06T00:37:40.401Z,544.7090
2019-04-06T00:37:48.440Z,546.0430
2019-04-06T00:37:56.377Z,546.6140
2019-04-06T00:38:04.383Z,547.0200
2019-04-06T00:38:12.390Z,547.0320
2019-04-06T00:38:20.401Z,548.0570
2019-04-06T00:38:28.414Z,549.0090
2019-04-06T00:38:36.512Z,550.1090
2019-04-06T00:38:44.391Z,548.9180
2019-04-06T00:38:51.517Z,547.0660
2019-04-06T00:38:59.544Z,545.9730
2019-04-06T00:39:07.419Z,545.6660
2019-04-06T00:39:15.434Z,546.0010
2019-04-06T00:39:23.419Z,547.1990
2019-04-06T00:39:31.383Z,548.7430
2019-04-06T00:39:39.434Z,547.7940
2019-04-06T00:39:48.077Z,549.0510
2019-04-06T00:39:55.388Z,549.5990
2019-04-06T00:40:02.379Z,549.3680
2019-04-06T00:40:10.401Z,548.1690
2019-04-06T00:40:18.417Z,548.8670
2019-04-06T00:40:26.421Z,547.9880
2019-04-06T00:40:34.436Z,548.1920
2019-04-06T00:40:42.387Z,548.1590
2019-04-06T00:40:50.409Z,547.9060
2019-04-06T00:40:58.399Z,546.6650
2019-04-06T00:41:06.387Z,544.4190
2019-04-06T00:41:14.429Z,545.2970
2019-04-06T00:41:22.407Z,544.5370
2019-04-06T00:41:30.428Z,544.3460
2019-04-06T00:41:39.041Z,543.0550
2019-04-06T00:41:47.404Z,542.1120
2019-04-06T00:41:55.401Z,542.6030
2019-04-06T00:42:03.434Z,542.5720
2019-04-06T00:42:11.441Z,542.7450
2019-04-06T00:42:19.429Z,542.0940
2019-04-06T00:42:27.421Z,543.4850
2019-04-06T00:42:35.398Z,545.1860
2019-04-06T00:42:43.426Z,546.0180
2019-04-06T00:42:52.017Z,546.7430
2019-04-06T00:43:00.401Z,547.9150
2019-04-06T00:43:09.049Z,548.3780
2019-04-06T00:43:20.069Z,549.2300
2019-04-06T00:43:28.434Z,550.3210
2019-04-06T00:43:36.456Z,548.9260
2019-04-06T00:43:44.422Z,548.5420
2019-04-06T00:43:52.398Z,548.7650
2019-04-06T00:43:59.460Z,548.6940
2019-04-06T00:44:07.449Z,549.3670
2019-04-06T00:44:16.845Z,547.5750
2019-04-06T00:44:24.419Z,549.3860
2019-04-06T00:44:32.388Z,547.7600
2019-04-06T00:44:40.393Z,547.0860
2019-04-06T00:44:48.406Z,547.7420
2019-04-06T00:44:56.428Z,548.3270
2019-04-06T00:45:04.451Z,548.7630
2019-04-06T00:45:12.454Z,549.9040
2019-04-06T00:45:20.401Z,549.5400
2019-04-06T00:45:28.418Z,548.5930
2019-04-06T00:45:36.424Z,547.9240
2019-04-06T00:45:44.452Z,548.4970
2019-04-06T00:45:51.401Z,547.2180
2019-04-06T00:45:59.399Z,546.8900
2019-04-06T00:46:07.388Z,546.8870
2019-04-06T00:46:15.401Z,546.5620
2019-04-06T00:46:23.391Z,546.4880
2019-04-06T00:46:31.451Z,546.7300
2019-04-06T00:46:39.411Z,546.7770
2019-04-06T00:46:47.399Z,546.0610
2019-04-06T00:46:55.409Z,547.8650
2019-04-06T00:47:03.382Z,548.4630
2019-04-06T00:47:11.470Z,548.7590
2019-04-06T00:47:19.467Z,548.3130
2019-04-06T00:47:27.406Z,547.5730
2019-04-06T00:47:35.431Z,546.5630
2019-04-06T00:47:43.397Z,545.7450
2019-04-06T00:47:50.408Z,544.9870
2019-04-06T00:47:58.410Z,543.7670
2019-04-06T00:48:08.031Z,542.7260
2019-04-06T00:48:16.411Z,543.9600
2019-04-06T00:48:24.399Z,546.0760
2019-04-06T00:48:32.388Z,547.5690
2019-04-06T00:48:40.439Z,548.3040
2019-04-06T00:48:48.393Z,548.9650
2019-04-06T00:48:56.391Z,548.3390
2019-04-06T00:49:04.408Z,547.7880
2019-04-06T00:49:13.399Z,546.9460
2019-04-06T00:49:21.425Z,547.7240
2019-04-06T00:49:29.400Z,547.2240
2019-04-06T00:49:37.423Z,546.7500
2019-04-06T00:49:45.412Z,545.7750
2019-04-06T00:49:53.419Z,545.3920
2019-04-06T00:50:01.497Z,544.4990
2019-04-06T00:50:09.431Z,544.2220
2019-04-06T00:50:17.420Z,545.0740
2019-04-06T00:50:25.429Z,545.5800
2019-04-06T00:50:33.420Z,545.4060
2019-04-06T00:50:41.448Z,545.8420
2019-04-06T00:50:49.399Z,546.4700
2019-04-06T00:50:56.429Z,546.4930
2019-04-06T00:51:04.378Z,545.9900
2019-04-06T00:51:12.378Z,546.0530
2019-04-06T00:51:20.413Z,545.7840
2019-04-06T00:51:28.442Z,545.6450
2019-04-06T00:51:36.428Z,546.7350
2019-04-06T00:51:44.406Z,547.3160
2019-04-06T00:51:52.414Z,547.0130
2019-04-06T00:52:00.391Z,548.0540
2019-04-06T00:52:08.416Z,550.8950
2019-04-06T00:52:15.395Z,551.7780
2019-04-06T00:52:23.401Z,549.9630
2019-04-06T00:52:30.438Z,548.8330
2019-04-06T00:52:39.047Z,549.2320
2019-04-06T00:52:47.454Z,549.1430
2019-04-06T00:52:55.389Z,547.9620
2019-04-06T00:53:03.414Z,546.4800
2019-04-06T00:53:11.464Z,546.4930
2019-04-06T00:53:19.479Z,545.4870
2019-04-06T00:53:27.401Z,545.8990
2019-04-06T00:53:35.381Z,547.0900
2019-04-06T00:53:43.380Z,547.7200
2019-04-06T00:53:51.379Z,547.7610
2019-04-06T00:53:59.433Z,545.6100
2019-04-06T00:54:08.068Z,544.3150
2019-04-06T00:54:17.194Z,542.6600
2019-04-06T00:54:25.392Z,542.6720
2019-04-06T00:54:32.385Z,543.3960
2019-04-06T00:54:40.384Z,541.5310
2019-04-06T00:54:48.381Z,542.3840
2019-04-06T00:54:56.420Z,543.0470
2019-04-06T00:55:04.409Z,543.8360
2019-04-06T00:55:12.417Z,544.6560
2019-04-06T00:55:20.394Z,544.8620
2019-04-06T00:55:28.399Z,545.2660
2019-04-06T00:55:37.589Z,545.1210
2019-04-06T00:55:55.084Z,545.2380
2019-04-06T00:55:58.470Z,547.1730
2019-04-06T00:56:06.422Z,548.3350
2019-04-06T00:56:14.431Z,550.7920
2019-04-06T00:56:22.431Z,550.9240
2019-04-06T00:56:30.397Z,550.2110
2019-04-06T00:56:38.407Z,549.5870
2019-04-06T00:56:46.407Z,546.2810
2019-04-06T00:56:54.409Z,545.2310
2019-04-06T00:57:02.380Z,545.9820
2019-04-06T00:57:10.432Z,544.7050
2019-04-06T00:57:18.427Z,542.8610
2019-04-06T00:57:26.390Z,542.5920
2019-04-06T00:57:34.408Z,542.4620
2019-04-06T00:57:42.443Z,540.3940
2019-04-06T00:57:50.438Z,540.9300
2019-04-06T00:57:58.427Z,541.2970
2019-04-06T00:58:06.467Z,543.1150
2019-04-06T00:58:14.382Z,542.1380
2019-04-06T00:58:22.381Z,541.8440
2019-04-06T00:58:30.407Z,543.3620
2019-04-06T00:58:38.422Z,543.8380
2019-04-06T00:58:46.396Z,542.8370
2019-04-06T00:58:54.429Z,543.3580
2019-04-06T00:59:02.417Z,544.4500
2019-04-06T00:59:10.459Z,543.8360
2019-04-06T00:59:18.382Z,544.6290
2019-04-06T00:59:26.423Z,544.5200
2019-04-06T00:59:34.410Z,542.4970
2019-04-06T00:59:42.423Z,541.8530
2019-04-06T00:59:50.488Z,541.2740
2019-04-06T00:59:58.419Z,541.7160
2019-04-06T01:00:06.418Z,543.0910
2019-04-06T01:00:15.030Z,544.6970
2019-04-06T01:00:23.398Z,545.1970
2019-04-06T01:00:31.457Z,542.4930
2019-04-06T01:00:39.460Z,539.4890
2019-04-06T01:00:47.411Z,535.7190
2019-04-06T01:00:55.393Z,535.4740
2019-04-06T01:01:03.416Z,535.3540
2019-04-06T01:01:11.403Z,536.7210
2019-04-06T01:01:19.422Z,537.8920
2019-04-06T01:01:27.410Z,535.6370
2019-04-06T01:01:35.409Z,533.8490
2019-04-06T01:01:43.408Z,533.6210
2019-04-06T01:01:51.445Z,534.3600
2019-04-06T01:01:59.374Z,535.7060
2019-04-06T01:02:07.404Z,537.1850
2019-04-06T01:02:15.415Z,540.4920
2019-04-06T01:02:23.401Z,542.4790
2019-04-06T01:02:31.429Z,543.2100
2019-04-06T01:02:39.433Z,541.2920
2019-04-06T01:02:47.433Z,543.6350
2019-04-06T01:02:55.501Z,538.2160
2019-04-06T01:03:04.440Z,537.0770
2019-04-06T01:03:12.417Z,538.5590
2019-04-06T01:03:19.441Z,540.8430
2019-04-06T01:03:27.382Z,543.4690
2019-04-06T01:03:36.018Z,543.2650
2019-04-06T01:03:44.429Z,540.5700
2019-04-06T01:03:52.403Z,540.3410
2019-04-06T01:04:00.384Z,540.3620
2019-04-06T01:04:09.039Z,539.8610
2019-04-06T01:04:17.378Z,540.8630
2019-04-06T01:04:24.434Z,539.8050
2019-04-06T01:04:32.380Z,540.7920
2019-04-06T01:04:40.424Z,542.1770
2019-04-06T01:04:48.415Z,541.1470
2019-04-06T01:04:59.021Z,542.7800
2019-04-06T01:05:07.395Z,543.9150
2019-04-06T01:05:15.380Z,542.9940
2019-04-06T01:05:23.420Z,540.2070
2019-04-06T01:05:31.415Z,540.8480
2019-04-06T01:05:39.413Z,541.0860
2019-04-06T01:05:47.407Z,541.4370
2019-04-06T01:05:55.407Z,542.3420
2019-04-06T01:06:03.509Z,542.7730
2019-04-06T01:06:11.444Z,538.6560
2019-04-06T01:06:19.380Z,538.3770
2019-04-06T01:06:27.373Z,538.1270
2019-04-06T01:06:35.389Z,536.4600
2019-04-06T01:06:43.439Z,535.8860
2019-04-06T01:06:51.414Z,535.8620
2019-04-06T01:06:59.431Z,536.5420
2019-04-06T01:07:07.438Z,536.0070
2019-04-06T01:07:15.433Z,539.2110
2019-04-06T01:07:23.535Z,540.0910
2019-04-06T01:07:31.417Z,541.3550
2019-04-06T01:07:39.418Z,542.7180
2019-04-06T01:07:48.018Z,546.8410
2019-04-06T01:07:56.460Z,547.0730
2019-04-06T01:08:04.389Z,543.2650
2019-04-06T01:08:13.031Z,543.6800
2019-04-06T01:08:21.414Z,538.5210
2019-04-06T01:08:31.424Z,535.5560
2019-04-06T01:08:41.402Z,535.1680
2019-04-06T01:08:51.410Z,537.0670
2019-04-06T01:08:59.397Z,537.3750
2019-04-06T01:09:07.514Z,539.1380
2019-04-06T01:09:15.397Z,539.6010
2019-04-06T01:09:23.424Z,541.7670
2019-04-06T01:09:31.458Z,540.9640
2019-04-06T01:09:39.469Z,540.1230
2019-04-06T01:09:47.496Z,538.3270
2019-04-06T01:09:55.447Z,539.0230
2019-04-06T01:10:03.399Z,539.2430
2019-04-06T01:10:11.478Z,542.3620
2019-04-06T01:10:19.391Z,542.3480
2019-04-06T01:10:27.449Z,539.2290
2019-04-06T01:10:35.389Z,540.1340
2019-04-06T01:10:43.398Z,543.2650
2019-04-06T01:10:50.411Z,544.1180
2019-04-06T01:10:58.437Z,544.7360
2019-04-06T01:11:06.410Z,545.4940
2019-04-06T01:11:14.442Z,546.3790
2019-04-06T01:11:22.525Z,548.4660
2019-04-06T01:11:30.402Z,549.4180
2019-04-06T01:11:38.398Z,548.9420
2019-04-06T01:11:46.392Z,545.2720
2019-04-06T01:11:54.410Z,544.1950
2019-04-06T01:12:02.407Z,543.5200
2019-04-06T01:12:10.402Z,543.5520
2019-04-06T01:12:18.419Z,542.5270
2019-04-06T01:12:25.378Z,541.1830
2019-04-06T01:12:33.432Z,542.6890
2019-04-06T01:12:41.408Z,541.2540
2019-04-06T01:12:49.400Z,541.0070
2019-04-06T01:12:57.405Z,541.7500
2019-04-06T01:13:05.379Z,543.4010
2019-04-06T01:13:13.401Z,544.7360
2019-04-06T01:13:21.434Z,545.6590
2019-04-06T01:13:29.403Z,547.6960
2019-04-06T01:13:37.487Z,548.5020
2019-04-06T01:13:45.404Z,547.6050
2019-04-06T01:13:53.402Z,548.5140
2019-04-06T01:14:01.436Z,546.2910
2019-04-06T01:14:11.027Z,544.4430
2019-04-06T01:14:19.400Z,544.6370
2019-04-06T01:14:27.427Z,546.0900
2019-04-06T01:14:35.399Z,546.9890
2019-04-06T01:14:43.396Z,548.3430
2019-04-06T01:14:51.425Z,548.7810
2019-04-06T01:14:59.417Z,549.2050
2019-04-06T01:15:07.417Z,547.1650
2019-04-06T01:15:15.407Z,543.7560
2019-04-06T01:15:23.400Z,541.6950
2019-04-06T01:15:31.382Z,541.3570
2019-04-06T01:15:39.427Z,543.1510
2019-04-06T01:15:48.030Z,544.1140
2019-04-06T01:15:56.501Z,543.5780
2019-04-06T01:16:04.406Z,544.9850
2019-04-06T01:16:12.428Z,546.2460
2019-04-06T01:16:20.419Z,547.9990
2019-04-06T01:16:28.438Z,547.2320
2019-04-06T01:16:36.402Z,545.4900
2019-04-06T01:16:44.403Z,544.6160
2019-04-06T01:16:52.427Z,544.2790
2019-04-06T01:17:00.414Z,545.7920
2019-04-06T01:17:08.026Z,546.4660
2019-04-06T01:17:17.088Z,546.1170
2019-04-06T01:17:25.434Z,549.2710
2019-04-06T01:17:34.017Z,548.0340
2019-04-06T01:17:42.415Z,546.2230
2019-04-06T01:17:50.418Z,546.2870
2019-04-06T01:17:58.413Z,544.9600
2019-04-06T01:18:06.377Z,546.2950
2019-04-06T01:18:14.380Z,549.5200
2019-04-06T01:18:22.412Z,548.2960
2019-04-06T01:18:30.390Z,545.6340
2019-04-06T01:18:38.418Z,548.0550
2019-04-06T01:18:46.429Z,547.2780
2019-04-06T01:18:53.414Z,545.6670
2019-04-06T01:19:01.409Z,544.5550
2019-04-06T01:19:09.448Z,545.5060
2019-04-06T01:19:17.433Z,544.7370
2019-04-06T01:19:25.420Z,545.1340
2019-04-06T01:19:32.466Z,545.5270
2019-04-06T01:19:40.416Z,548.0510
2019-04-06T01:19:48.390Z,546.2040
2019-04-06T01:19:56.393Z,547.5090
2019-04-06T01:20:04.440Z,546.8460
2019-04-06T01:20:12.377Z,544.7120
2019-04-06T01:20:20.444Z,543.6590
2019-04-06T01:20:28.419Z,542.6680
2019-04-06T01:20:36.416Z,542.1220
2019-04-06T01:20:44.397Z,541.0070
2019-04-06T01:20:52.401Z,540.2480
2019-04-06T01:21:00.392Z,539.2490
2019-04-06T01:21:08.482Z,539.4120
2019-04-06T01:21:16.421Z,542.4480
2019-04-06T01:21:24.403Z,544.2630
2019-04-06T01:21:32.391Z,543.1520
2019-04-06T01:21:41.398Z,542.5250
2019-04-06T01:21:49.429Z,540.1160
2019-04-06T01:21:57.552Z,537.7580
2019-04-06T01:22:05.438Z,536.2570
2019-04-06T01:22:13.412Z,532.1440
2019-04-06T01:22:21.409Z,531.9890
2019-04-06T01:22:30.051Z,532.1830
2019-04-06T01:22:38.420Z,533.3600
2019-04-06T01:22:47.401Z,537.5760
2019-04-06T01:22:55.392Z,537.1080
2019-04-06T01:23:03.387Z,535.3700
2019-04-06T01:23:11.410Z,534.1020
2019-04-06T01:23:19.385Z,535.0490
2019-04-06T01:23:27.489Z,535.4060
2019-04-06T01:23:35.424Z,535.6400
2019-04-06T01:23:44.027Z,536.9080
2019-04-06T01:23:52.433Z,538.6620
2019-04-06T01:24:00.925Z,539.5770
2019-04-06T01:24:08.409Z,542.1240
2019-04-06T01:24:16.384Z,541.7630
2019-04-06T01:24:24.473Z,543.6740
2019-04-06T01:24:32.431Z,544.4410
2019-04-06T01:24:41.004Z,544.3100
2019-04-06T01:24:49.390Z,544.1350
2019-04-06T01:24:57.394Z,542.2700
2019-04-06T01:25:05.019Z,541.7740
2019-04-06T01:25:13.407Z,540.7590
2019-04-06T01:25:21.389Z,540.7420
2019-04-06T01:25:29.422Z,542.0060
2019-04-06T01:25:37.409Z,542.3550
2019-04-06T01:25:45.402Z,542.3150
2019-04-06T01:25:52.412Z,542.0880
2019-04-06T01:26:07.202Z,542.9700
2019-04-06T01:26:14.389Z,541.6260
2019-04-06T01:26:22.529Z,542.7320
2019-04-06T01:26:30.402Z,543.8580
2019-04-06T01:26:38.475Z,543.5270
2019-04-06T01:26:46.438Z,540.7880
2019-04-06T01:26:54.555Z,543.7600
2019-04-06T01:27:02.447Z,545.0850
2019-04-06T01:27:10.410Z,545.7000
2019-04-06T01:27:18.409Z,548.0630
2019-04-06T01:27:26.427Z,548.9190
2019-04-06T01:27:34.411Z,549.6660
2019-04-06T01:27:42.400Z,550.3010
2019-04-06T01:27:50.402Z,549.8780
2019-04-06T01:27:58.417Z,549.2490
2019-04-06T01:28:06.389Z,548.5700
2019-04-06T01:28:14.401Z,548.0000
2019-04-06T01:28:22.419Z,548.4400
2019-04-06T01:28:30.427Z,547.0530
2019-04-06T01:28:38.415Z,545.8390
2019-04-06T01:28:47.093Z,546.7570
2019-04-06T01:28:55.417Z,545.9940
2019-04-06T01:29:03.425Z,544.5230
2019-04-06T01:29:11.393Z,543.5030
2019-04-06T01:29:19.434Z,544.5620
2019-04-06T01:29:27.607Z,544.2680
2019-04-06T01:29:35.419Z,543.1330
2019-04-06T01:29:43.433Z,542.1660
2019-04-06T01:29:51.441Z,540.9120
2019-04-06T01:29:59.401Z,541.4840
2019-04-06T01:30:07.451Z,539.5460
2019-04-06T01:30:15.394Z,538.0630
2019-04-06T01:30:23.411Z,536.9030
2019-04-06T01:30:31.467Z,537.2330
2019-04-06T01:30:39.407Z,537.2650
2019-04-06T01:30:47.429Z,537.6590
2019-04-06T01:30:55.416Z,537.4760
2019-04-06T01:31:03.388Z,538.2920
2019-04-06T01:31:11.717Z,537.1050
2019-04-06T01:31:21.033Z,537.9720
2019-04-06T01:31:30.059Z,538.3970
2019-04-06T01:31:37.431Z,537.3900
2019-04-06T01:31:45.391Z,537.5430
2019-04-06T01:31:53.528Z,538.3860
2019-04-06T01:32:01.434Z,538.6180
2019-04-06T01:32:09.387Z,538.8810
2019-04-06T01:32:17.428Z,538.6660
2019-04-06T01:32:25.381Z,539.3500
2019-04-06T01:32:33.393Z,539.3890
2019-04-06T01:32:41.446Z,541.3970
2019-04-06T01:32:50.019Z,541.3800
2019-04-06T01:32:58.428Z,539.3090
2019-04-06T01:33:06.413Z,539.5000
2019-04-06T01:33:16.017Z,539.8550
2019-04-06T01:33:23.466Z,540.8290
2019-04-06T01:33:31.510Z,540.8420
2019-04-06T01:33:39.413Z,540.3040
2019-04-06T01:33:47.380Z,540.6120
2019-04-06T01:33:55.478Z,539.8230
2019-04-06T01:34:04.028Z,538.2030
2019-04-06T01:34:12.441Z,535.8690
2019-04-06T01:34:20.382Z,535.2610
2019-04-06T01:34:27.415Z,535.1580
2019-04-06T01:34:35.525Z,534.6630
2019-04-06T01:34:43.409Z,534.6670
2019-04-06T01:34:51.409Z,535.6030